Ochelata, OK

4:07 AM CDT on May 26, 2015 (GMT -0500)
East Drive | | Change Station
CLOSE
Current Station
Personal Weather Station
Location: Bartlesville, OK
Elevation: 752 ft
Nearby Weather Stations

Elev 752 ft 36.73 °N, 95.91 °W | Updated 1 minute ago

Partly Cloudy
Partly Cloudy
60.2 °F
Feels Like 60.2 °F
N
0.0
Wind Variable Wind from SSW
Gusts 4.0 mph

Today
High -- | Low -- °F
--% Chance of Precip.
Yesterday
High -- | Low -- °F
Precip. -- in
6:09 AM 8:32 PM
First Quarter, 56% visible
Pressure 29.81 in
Visibility 10.0 miles
Clouds Few 4600 ft
Scattered Clouds 11000 ft
Dew Point 58 °F
Humidity 92%
Rainfall 0.00 in
Snow Depth Not available.
UV 0 out of 12
Pollen 5.80 out of 12
Air Quality Not available.
Flu Activity Sporadic
METAR KBVO 260753Z AUTO 00000KT 10SM FEW046 SCT110 16/16 A2984 RMK AO2 RAB24E37 SLP095 P0000 T01560156 $

More Conditions Fewer Conditions

Pressure 29.81 in
Visibility 10.0 miles
Clouds Few 4600 ft
Scattered Clouds 11000 ft
Dew Point 58 °F
Humidity 92%
Rainfall 0.00 in
Snow Depth Not available.
UV 0 out of 12
Pollen 5.80 out of 12
Air Quality Not available.
Flu Activity Sporadic
METAR KBVO 260753Z AUTO 00000KT 10SM FEW046 SCT110 16/16 A2984 RMK AO2 RAB24E37 SLP095 P0000 T01560156 $

More Conditions Fewer Conditions

10-Day Weather Forecast

Almanac

Astronomy

May. 26, 2015 Rise Set
Actual Time
Civil Twilight
Nautical Twilight
Astronomical Twilight
Moon
Length of Visible Light
Length of Day
Tomorrow will be .
, % of the Moon is Illuminated

Today's Extremes

State Highs State Lows

Community

WunderPhotos

Upload Photos

1,824,302 photos uploaded!

WunderBlogs® & News

Nearby

Air Quality

  Air Quality AQ Index Pollutant
Not available.

Snow Depth

Station Depth Elevation

Earthquake Activity

City Distance Mag. Time & Date
Minimum magnitude displayed is 2.5.

Coastal Water Temperatures

Place Temperature

Stations

Nearby Weather Stations

Station Location Temp. Windchill Dew Point Humidity Wind Precip. Elev Updated Type